createdAt,value
2017-10-16T00:00:26.634Z,24.30
2017-10-16T00:02:54.136Z,22.10
2017-10-16T00:05:22.107Z,27.57
2017-10-16T00:07:49.634Z,19.97
2017-10-16T00:10:17.153Z,22.95
2017-10-16T00:12:44.739Z,18.53
2017-10-16T00:15:12.254Z,16.10
2017-10-16T00:17:39.747Z,25.43
2017-10-16T00:20:07.255Z,26.47
2017-10-16T00:22:34.784Z,17.03
2017-10-16T00:25:02.329Z,19.83
2017-10-16T00:27:29.873Z,24.97
2017-10-16T00:29:57.463Z,26.67
2017-10-16T00:32:24.898Z,24.73
2017-10-16T00:34:52.488Z,25.10
2017-10-16T00:37:19.975Z,27.13
2017-10-16T00:39:47.551Z,23.00
2017-10-16T00:42:15.181Z,35.73
2017-10-16T00:44:43.732Z,24.13
2017-10-16T00:47:11.170Z,25.60
2017-10-16T00:49:39.000Z,23.37
2017-10-16T00:52:06.496Z,21.80
2017-10-16T00:54:34.004Z,37.50
2017-10-16T00:57:01.883Z,53.10
2017-10-16T00:59:29.519Z,57.23
2017-10-16T01:01:57.003Z,31.50
2017-10-16T01:04:25.028Z,30.70
2017-10-16T01:06:52.604Z,31.63
2017-10-16T01:09:20.270Z,36.85
2017-10-16T01:11:48.138Z,23.20
2017-10-16T01:14:15.627Z,41.67
2017-10-16T01:16:43.129Z,33.00
2017-10-16T01:19:10.925Z,31.90
2017-10-16T01:21:38.600Z,20.93
2017-10-16T01:24:06.169Z,39.33
2017-10-16T01:26:33.818Z,27.20
2017-10-16T01:29:01.381Z,21.57
2017-10-16T01:31:28.950Z,24.53
2017-10-16T01:33:56.822Z,35.00
2017-10-16T01:36:24.307Z,43.10
2017-10-16T01:38:51.941Z,38.87
2017-10-16T01:41:19.801Z,29.27
2017-10-16T01:43:47.471Z,24.63
2017-10-16T01:46:15.030Z,35.47
2017-10-16T01:48:42.920Z,33.20
2017-10-16T01:51:10.540Z,38.10
2017-10-16T01:53:38.028Z,32.23
2017-10-16T01:56:05.581Z,33.70
2017-10-16T01:58:33.160Z,56.20
2017-10-16T02:01:00.652Z,71.00
2017-10-16T02:03:28.163Z,91.80
2017-10-16T02:05:55.620Z,87.93
2017-10-16T02:08:23.088Z,55.10
2017-10-16T02:10:50.620Z,42.53
2017-10-16T02:13:18.120Z,32.80
2017-10-16T02:15:45.609Z,51.83
2017-10-16T02:18:13.085Z,39.53
2017-10-16T02:20:40.529Z,37.20
2017-10-16T02:23:08.088Z,27.60
2017-10-16T02:25:35.916Z,30.13
2017-10-16T02:28:03.482Z,22.70
2017-10-16T02:30:31.038Z,26.80
2017-10-16T02:32:58.651Z,36.50
2017-10-16T02:35:26.172Z,30.67
2017-10-16T02:37:53.653Z,33.60
2017-10-16T02:40:21.178Z,28.75
2017-10-16T02:42:48.748Z,26.17
2017-10-16T02:45:16.304Z,28.47
2017-10-16T02:47:43.831Z,23.80
2017-10-16T02:50:11.441Z,26.00
2017-10-16T02:52:38.919Z,40.97
2017-10-16T02:55:06.509Z,30.30
2017-10-16T02:57:34.022Z,28.53
2017-10-16T03:00:01.556Z,24.07
2017-10-16T03:02:29.096Z,41.70
2017-10-16T03:04:56.714Z,76.80
2017-10-16T03:07:24.190Z,87.77
2017-10-16T03:09:51.931Z,86.70
2017-10-16T03:12:19.399Z,107.35
2017-10-16T03:14:46.962Z,114.60
2017-10-16T03:17:14.634Z,64.60
2017-10-16T03:19:42.133Z,43.63
2017-10-16T03:22:09.682Z,34.90
2017-10-16T03:24:37.563Z,96.45
2017-10-16T03:27:05.109Z,36.47
2017-10-16T03:29:32.655Z,32.93
2017-10-16T03:32:00.220Z,44.17
2017-10-16T03:34:27.742Z,31.33
2017-10-16T03:36:55.261Z,43.43
2017-10-16T03:39:22.924Z,57.20
2017-10-16T03:41:50.426Z,50.23
2017-10-16T03:46:51.830Z,67.10
2017-10-16T03:49:19.378Z,88.57
2017-10-16T03:51:47.128Z,39.57
2017-10-16T03:54:14.659Z,74.33
2017-10-16T03:56:42.118Z,53.83
2017-10-16T03:59:09.651Z,43.87
2017-10-16T04:01:37.522Z,48.73
2017-10-16T04:04:05.441Z,43.33
2017-10-16T04:06:33.224Z,24.63
2017-10-16T04:09:00.762Z,37.40
2017-10-16T04:11:28.428Z,32.70
2017-10-16T04:13:56.923Z,30.87
2017-10-16T04:16:24.511Z,32.63
2017-10-16T04:18:52.102Z,34.27
2017-10-16T04:21:19.657Z,28.57
2017-10-16T04:23:47.481Z,31.20
2017-10-16T04:26:15.075Z,33.10
2017-10-16T04:28:42.693Z,40.90
2017-10-16T04:31:10.285Z,41.73
2017-10-16T04:33:37.901Z,70.47
2017-10-16T04:36:06.415Z,122.80
2017-10-16T04:38:34.538Z,120.53
2017-10-16T04:41:02.023Z,71.33
2017-10-16T04:43:29.584Z,71.97
2017-10-16T04:45:57.294Z,52.50
2017-10-16T04:48:24.812Z,57.60
2017-10-16T04:50:52.310Z,51.87
2017-10-16T04:53:20.000Z,45.97
2017-10-16T04:55:48.212Z,47.83
2017-10-16T04:58:15.835Z,45.85
2017-10-16T05:00:43.529Z,66.73
2017-10-16T05:03:13.812Z,65.50
2017-10-16T05:05:41.356Z,83.27
2017-10-16T05:08:09.290Z,93.53
2017-10-16T05:10:36.782Z,62.10
2017-10-16T05:13:04.303Z,88.53
2017-10-16T05:15:31.907Z,55.20
2017-10-16T05:17:59.600Z,68.60
2017-10-16T05:20:27.210Z,91.30
2017-10-16T05:22:54.782Z,72.13
2017-10-16T05:25:22.318Z,40.47
2017-10-16T05:27:50.328Z,60.43
2017-10-16T05:30:20.216Z,86.30
2017-10-16T05:32:47.738Z,87.63
2017-10-16T05:35:15.262Z,58.70
2017-10-16T05:37:42.800Z,88.37
2017-10-16T05:40:10.323Z,62.75
2017-10-16T05:42:37.922Z,69.68
2017-10-16T05:45:05.793Z,51.30
2017-10-16T05:47:33.373Z,81.53
2017-10-16T05:50:01.035Z,78.37
2017-10-16T05:52:28.658Z,73.20
2017-10-16T05:54:56.229Z,59.00
2017-10-16T05:57:23.725Z,87.00
2017-10-16T05:59:51.259Z,52.90
2017-10-16T06:02:18.804Z,50.58
2017-10-16T06:04:46.360Z,47.88
2017-10-16T06:07:13.935Z,48.45
2017-10-16T06:09:41.497Z,43.07
2017-10-16T06:12:09.026Z,45.73
2017-10-16T06:14:36.560Z,45.58
2017-10-16T06:17:04.148Z,33.90
2017-10-16T06:19:31.631Z,37.88
2017-10-16T06:21:59.250Z,54.90
2017-10-16T06:24:26.722Z,110.20
2017-10-16T06:26:54.280Z,70.90
2017-10-16T06:29:21.941Z,61.27
2017-10-16T06:31:49.385Z,58.47
2017-10-16T06:34:16.908Z,87.00
2017-10-16T06:36:44.647Z,59.00
2017-10-16T06:39:12.173Z,47.57
2017-10-16T06:41:39.660Z,38.20
2017-10-16T06:44:07.503Z,39.83
2017-10-16T06:46:34.984Z,38.00
2017-10-16T06:49:02.443Z,29.90
2017-10-16T06:51:30.027Z,28.70
2017-10-16T06:53:57.614Z,26.50
2017-10-16T06:56:25.092Z,40.00
2017-10-16T06:58:52.681Z,23.63
2017-10-16T07:01:20.288Z,27.83
2017-10-16T07:03:47.782Z,26.73
2017-10-16T07:06:15.588Z,26.07
2017-10-16T07:08:43.107Z,29.90
2017-10-16T07:11:10.576Z,25.30
2017-10-16T07:13:38.750Z,24.10
2017-10-16T07:16:06.257Z,22.50
2017-10-16T07:18:33.890Z,19.40
2017-10-16T07:21:01.522Z,23.07
2017-10-16T07:23:29.079Z,31.90
2017-10-16T07:25:56.664Z,28.58
2017-10-16T07:28:24.190Z,39.03
2017-10-16T07:30:51.697Z,47.42
2017-10-16T07:33:19.238Z,72.03
2017-10-16T07:35:47.222Z,43.22
2017-10-16T07:38:14.744Z,66.23
2017-10-16T07:40:42.333Z,69.37
2017-10-16T07:43:10.171Z,87.40
2017-10-16T07:45:37.725Z,63.47
2017-10-16T07:48:05.295Z,39.90
2017-10-16T07:53:06.521Z,26.90
2017-10-16T07:55:34.276Z,22.43
2017-10-16T07:58:01.762Z,23.43
2017-10-16T08:00:29.260Z,23.23
2017-10-16T08:02:57.326Z,21.97
2017-10-16T08:05:25.813Z,17.70
2017-10-16T08:07:53.321Z,20.20
2017-10-16T08:10:21.205Z,21.23
2017-10-16T08:12:48.697Z,21.50
2017-10-16T08:15:16.309Z,24.87
2017-10-16T08:17:44.256Z,18.97
2017-10-16T08:20:11.817Z,21.15
2017-10-16T08:22:39.542Z,17.67
2017-10-16T08:25:07.193Z,16.50
2017-10-16T08:27:34.894Z,17.80
2017-10-16T08:30:02.598Z,14.33
2017-10-16T08:32:30.442Z,17.80
2017-10-16T08:34:57.925Z,15.93
2017-10-16T08:37:25.570Z,16.03
2017-10-16T08:39:53.936Z,15.00
2017-10-16T08:42:21.446Z,14.50
2017-10-16T08:44:49.224Z,18.30
2017-10-16T08:47:17.150Z,16.43
2017-10-16T08:49:44.693Z,16.00
2017-10-16T08:52:12.294Z,16.63
2017-10-16T08:54:39.956Z,15.67
2017-10-16T08:57:07.417Z,22.93
2017-10-16T08:59:35.116Z,22.97
2017-10-16T09:02:03.182Z,25.20
2017-10-16T09:04:30.667Z,23.20
2017-10-16T09:06:58.219Z,20.40
2017-10-16T09:09:25.865Z,23.23
2017-10-16T09:11:54.625Z,25.03
2017-10-16T09:14:22.127Z,21.00
2017-10-16T09:16:49.622Z,21.30
2017-10-16T09:19:17.150Z,21.67
2017-10-16T09:21:44.617Z,17.93
2017-10-16T09:24:12.600Z,26.40
2017-10-16T09:26:40.198Z,24.20
2017-10-16T09:29:07.644Z,22.77
2017-10-16T09:31:35.184Z,28.67
2017-10-16T09:34:02.726Z,17.83
2017-10-16T09:36:30.310Z,21.43
2017-10-16T09:38:58.263Z,17.20
2017-10-16T09:41:25.701Z,19.57
2017-10-16T09:43:53.304Z,16.87
2017-10-16T09:46:20.876Z,21.73
2017-10-16T09:48:49.261Z,19.58
2017-10-16T09:51:16.858Z,17.30
2017-10-16T09:53:44.439Z,21.17
2017-10-16T09:56:12.071Z,18.42
2017-10-16T09:58:40.099Z,14.77
2017-10-16T10:01:07.904Z,18.37
2017-10-16T10:03:35.704Z,16.03
2017-10-16T10:06:03.222Z,19.73
2017-10-16T10:08:31.111Z,16.75
2017-10-16T10:10:58.981Z,16.67
2017-10-16T10:13:26.526Z,16.43
2017-10-16T10:15:54.491Z,13.33
2017-10-16T10:18:22.065Z,13.10
2017-10-16T10:20:49.739Z,11.57
2017-10-16T10:23:17.615Z,15.83
2017-10-16T10:25:45.135Z,11.37
2017-10-16T10:28:12.581Z,13.50
2017-10-16T10:30:40.093Z,11.47
2017-10-16T10:33:07.520Z,10.03
2017-10-16T10:35:35.894Z,13.47
2017-10-16T10:38:03.428Z,10.20
2017-10-16T10:40:30.915Z,10.40
2017-10-16T10:42:59.829Z,10.05
2017-10-16T10:45:28.256Z,9.30
2017-10-16T10:47:56.859Z,10.27
2017-10-16T10:50:24.402Z,15.70
2017-10-16T10:52:54.452Z,10.53
2017-10-16T10:55:23.815Z,14.73
2017-10-16T10:57:51.527Z,10.33
2017-10-16T11:00:19.489Z,8.87
2017-10-16T11:02:47.025Z,10.00
2017-10-16T11:05:17.779Z,8.70
2017-10-16T11:07:45.280Z,8.13
2017-10-16T11:10:12.749Z,7.93
2017-10-16T11:12:40.417Z,8.17
2017-10-16T11:15:08.093Z,13.37
2017-10-16T11:17:35.589Z,14.43
2017-10-16T11:20:03.207Z,8.63
2017-10-16T11:22:31.074Z,6.87
2017-10-16T11:24:58.548Z,10.07
2017-10-16T11:27:27.031Z,8.40
2017-10-16T11:29:54.534Z,7.30
2017-10-16T11:32:21.988Z,7.17
2017-10-16T11:34:49.449Z,7.85
2017-10-16T11:37:17.290Z,7.60
2017-10-16T11:39:44.823Z,8.10
2017-10-16T11:42:13.314Z,10.90
2017-10-16T11:44:40.967Z,7.70
2017-10-16T11:47:08.583Z,11.20
2017-10-16T11:49:36.111Z,8.13
2017-10-16T11:52:03.712Z,7.70
2017-10-16T11:54:31.273Z,8.50
2017-10-16T11:56:58.919Z,8.17
2017-10-16T11:59:26.495Z,7.30
2017-10-16T12:01:54.048Z,10.70
2017-10-16T12:04:21.611Z,10.23
2017-10-16T12:06:49.260Z,7.00
2017-10-16T12:09:17.605Z,6.77
2017-10-16T12:11:45.110Z,8.90
2017-10-16T12:14:12.831Z,7.50
2017-10-16T12:16:40.345Z,6.47
2017-10-16T12:19:07.868Z,10.47
2017-10-16T12:21:35.842Z,8.03
2017-10-16T12:24:03.346Z,9.13
2017-10-16T12:26:30.855Z,7.43
2017-10-16T12:28:58.900Z,7.10
2017-10-16T12:31:26.412Z,13.57
2017-10-16T12:33:53.950Z,11.47
2017-10-16T12:36:21.555Z,11.45
2017-10-16T12:38:49.084Z,11.83
2017-10-16T12:41:16.632Z,8.30
2017-10-16T12:43:44.245Z,8.50
2017-10-16T12:46:11.738Z,8.63
2017-10-16T12:48:39.189Z,8.40
2017-10-16T12:51:06.764Z,10.37
2017-10-16T12:53:34.271Z,7.37
2017-10-16T12:56:01.758Z,10.80
2017-10-16T12:58:29.289Z,6.97
2017-10-16T13:00:56.862Z,8.00
2017-10-16T13:03:24.459Z,10.60
2017-10-16T13:05:52.474Z,8.57
2017-10-16T13:08:19.946Z,6.32
2017-10-16T13:10:47.517Z,19.90
2017-10-16T13:13:15.174Z,9.27
2017-10-16T13:15:42.702Z,8.50
2017-10-16T13:18:10.265Z,13.02
2017-10-16T13:20:37.846Z,13.20
2017-10-16T13:23:05.428Z,10.93
2017-10-16T13:25:33.039Z,8.63
2017-10-16T13:28:00.591Z,10.70
2017-10-16T13:30:28.116Z,7.30
2017-10-16T13:32:55.943Z,11.10
2017-10-16T13:35:23.420Z,8.48
2017-10-16T13:37:50.948Z,7.67
2017-10-16T13:40:18.546Z,7.93
2017-10-16T13:42:46.963Z,7.63
2017-10-16T13:45:14.540Z,10.47
2017-10-16T13:47:42.277Z,6.60
2017-10-16T13:50:09.884Z,8.53
2017-10-16T13:52:38.054Z,7.93
2017-10-16T13:55:06.568Z,8.47
2017-10-16T13:57:34.350Z,8.03
2017-10-16T14:00:01.969Z,9.75
2017-10-16T14:02:29.550Z,6.30
2017-10-16T14:04:57.228Z,17.17
2017-10-16T14:07:25.496Z,9.27
2017-10-16T14:09:53.456Z,8.37
2017-10-16T14:12:21.315Z,8.88
2017-10-16T14:14:49.044Z,8.33
2017-10-16T14:17:16.631Z,7.63
2017-10-16T14:19:44.508Z,9.30
2017-10-16T14:22:12.267Z,7.40
2017-10-16T14:24:39.858Z,8.70
2017-10-16T14:27:07.911Z,8.10
2017-10-16T14:29:35.539Z,10.53
2017-10-16T14:32:03.023Z,10.10
2017-10-16T14:34:32.399Z,8.37
2017-10-16T14:37:00.878Z,8.53
2017-10-16T14:39:28.452Z,10.30
2017-10-16T14:41:57.740Z,8.53
2017-10-16T14:44:25.199Z,8.13
2017-10-16T14:46:52.744Z,7.00
2017-10-16T14:49:21.026Z,9.97
2017-10-16T14:51:48.641Z,8.70
2017-10-16T14:54:16.633Z,8.15
2017-10-16T14:56:44.341Z,8.50
2017-10-16T14:59:11.847Z,11.33
2017-10-16T15:01:39.566Z,8.00
2017-10-16T15:04:08.627Z,12.07
2017-10-16T15:06:36.220Z,8.37
2017-10-16T15:09:03.817Z,8.17
2017-10-16T15:11:31.525Z,10.57
2017-10-16T15:13:59.125Z,11.23
2017-10-16T15:16:26.749Z,11.10
2017-10-16T15:18:54.376Z,12.20
2017-10-16T15:21:23.574Z,9.10
2017-10-16T15:23:51.103Z,11.23
2017-10-16T15:26:18.832Z,11.40
2017-10-16T15:28:46.633Z,8.97
2017-10-16T15:31:14.057Z,8.97
2017-10-16T15:33:42.532Z,11.47
2017-10-16T15:36:10.198Z,13.93
2017-10-16T15:38:39.459Z,8.10
2017-10-16T15:41:07.141Z,15.47
2017-10-16T15:43:34.703Z,6.70
2017-10-16T15:46:02.314Z,13.60
2017-10-16T15:48:30.173Z,12.63
2017-10-16T15:50:57.726Z,10.83
2017-10-16T15:53:25.349Z,20.03
2017-10-16T15:55:53.165Z,22.23
2017-10-16T15:58:20.852Z,13.02
2017-10-16T16:00:48.538Z,7.53
2017-10-16T16:03:17.436Z,7.10
2017-10-16T16:05:45.478Z,7.43
2017-10-16T16:08:15.267Z,8.03
2017-10-16T16:13:18.167Z,7.30
2017-10-16T16:15:46.125Z,12.10
2017-10-16T16:18:13.896Z,12.23
2017-10-16T16:20:41.628Z,10.60
2017-10-16T16:23:09.657Z,8.20
2017-10-16T16:25:37.318Z,10.90
2017-10-16T16:28:06.139Z,13.13
2017-10-16T16:30:36.627Z,12.07
2017-10-16T16:33:04.139Z,11.43
2017-10-16T16:35:31.610Z,12.30
2017-10-16T16:37:59.789Z,13.17
2017-10-16T16:40:27.294Z,9.30
2017-10-16T16:42:54.800Z,16.33
2017-10-16T16:45:22.856Z,10.52
2017-10-16T16:47:50.358Z,7.77
2017-10-16T16:50:20.869Z,11.50
2017-10-16T16:52:48.857Z,16.97
2017-10-16T16:55:16.334Z,16.85
2017-10-16T16:57:46.123Z,10.32
2017-10-16T17:00:13.741Z,10.60
2017-10-16T17:02:41.199Z,9.63
2017-10-16T17:05:08.758Z,13.20
2017-10-16T17:07:36.391Z,13.97
2017-10-16T17:10:03.990Z,10.53
2017-10-16T17:12:31.548Z,14.67
2017-10-16T17:14:59.440Z,14.90
2017-10-16T17:17:27.044Z,11.97
2017-10-16T17:19:54.597Z,17.03
2017-10-16T17:22:22.647Z,14.93
2017-10-16T17:24:50.272Z,15.70
2017-10-16T17:27:17.788Z,12.73
2017-10-16T17:29:50.407Z,13.70
2017-10-16T17:32:17.942Z,18.30
2017-10-16T17:34:45.573Z,10.93
2017-10-16T17:37:13.438Z,13.32
2017-10-16T17:39:40.977Z,15.77
2017-10-16T17:42:08.464Z,16.70
2017-10-16T17:44:36.589Z,16.80
2017-10-16T17:47:04.419Z,23.70
2017-10-16T17:49:32.011Z,13.37
2017-10-16T17:51:59.952Z,16.20
2017-10-16T17:54:27.418Z,14.70
2017-10-16T17:56:54.917Z,14.87
2017-10-16T17:59:23.274Z,16.50
2017-10-16T18:01:51.761Z,22.43
2017-10-16T18:04:19.289Z,22.63
2017-10-16T18:06:47.156Z,21.67
2017-10-16T18:09:14.719Z,21.60
2017-10-16T18:11:42.311Z,24.87
2017-10-16T18:14:09.877Z,16.00
2017-10-16T18:16:37.534Z,16.50
2017-10-16T18:19:05.129Z,25.20
2017-10-16T18:21:32.745Z,17.77
2017-10-16T18:24:00.361Z,27.13
2017-10-16T18:26:27.935Z,14.30
2017-10-16T18:28:56.188Z,20.87
2017-10-16T18:31:23.769Z,20.53
2017-10-16T18:33:51.385Z,15.53
2017-10-16T18:36:19.025Z,18.08
2017-10-16T18:38:47.282Z,13.93
2017-10-16T18:41:14.835Z,19.87
2017-10-16T18:43:42.429Z,16.83
2017-10-16T18:46:09.938Z,11.73
2017-10-16T18:48:37.401Z,16.03
2017-10-16T18:51:05.064Z,18.70
2017-10-16T18:53:32.612Z,14.70
2017-10-16T18:56:00.163Z,30.63
2017-10-16T18:58:27.687Z,11.50
2017-10-16T19:00:55.273Z,15.23
2017-10-16T19:03:22.731Z,12.27
2017-10-16T19:05:50.271Z,19.75
2017-10-16T19:08:17.743Z,15.88
2017-10-16T19:10:45.281Z,11.63
2017-10-16T19:13:12.941Z,13.83
2017-10-16T19:15:40.580Z,15.83
2017-10-16T19:18:08.243Z,12.20
2017-10-16T19:20:35.886Z,18.55
2017-10-16T19:23:03.428Z,21.43
2017-10-16T19:25:31.010Z,19.40
2017-10-16T19:27:58.626Z,27.03
2017-10-16T19:30:26.272Z,20.60
2017-10-16T19:32:53.825Z,21.17
2017-10-16T19:35:21.788Z,16.53
2017-10-16T19:37:49.461Z,12.33
2017-10-16T19:40:17.106Z,14.23
2017-10-16T19:42:44.724Z,15.47
2017-10-16T19:45:12.272Z,16.00
2017-10-16T19:47:39.892Z,13.40
2017-10-16T19:50:07.568Z,14.30
2017-10-16T19:52:35.291Z,13.60
2017-10-16T19:55:02.869Z,9.82
2017-10-16T19:57:30.423Z,15.00
2017-10-16T19:59:58.093Z,17.75
2017-10-16T20:02:25.656Z,12.23
2017-10-16T20:04:53.318Z,15.47
2017-10-16T20:07:20.926Z,15.30
2017-10-16T20:09:48.537Z,19.20
2017-10-16T20:12:16.206Z,16.13
2017-10-16T20:14:43.854Z,32.42
2017-10-16T20:17:11.472Z,73.85
2017-10-16T20:19:38.990Z,62.03
2017-10-16T20:22:06.476Z,24.10
2017-10-16T20:24:34.099Z,24.80
2017-10-16T20:27:01.917Z,17.70
2017-10-16T20:29:29.475Z,18.73
2017-10-16T20:31:56.986Z,16.43
2017-10-16T20:34:24.602Z,13.10
2017-10-16T20:36:52.245Z,14.43
2017-10-16T20:39:19.886Z,16.63
2017-10-16T20:41:48.202Z,14.23
2017-10-16T20:44:15.785Z,13.35
2017-10-16T20:46:43.794Z,16.50
2017-10-16T20:49:11.796Z,21.43
2017-10-16T20:51:39.352Z,19.40
2017-10-16T20:54:07.005Z,18.47
2017-10-16T20:56:34.681Z,18.63
2017-10-16T20:59:02.316Z,21.00
2017-10-16T21:01:29.814Z,25.43
2017-10-16T21:03:57.459Z,20.87
2017-10-16T21:06:25.023Z,23.83
2017-10-16T21:08:52.513Z,21.47
2017-10-16T21:11:20.530Z,21.30
2017-10-16T21:13:49.765Z,20.60
2017-10-16T21:16:17.294Z,29.87
2017-10-16T21:18:44.870Z,20.63
2017-10-16T21:21:12.527Z,21.93
2017-10-16T21:23:40.232Z,18.60
2017-10-16T21:26:08.428Z,28.57
2017-10-16T21:28:36.138Z,23.50
2017-10-16T21:31:03.699Z,30.80
2017-10-16T21:33:31.310Z,28.30
2017-10-16T21:35:59.036Z,24.93
2017-10-16T21:38:26.505Z,26.37
2017-10-16T21:40:54.421Z,29.77
2017-10-16T21:43:21.894Z,27.20
2017-10-16T21:45:49.444Z,18.47
2017-10-16T21:48:17.430Z,31.80
2017-10-16T21:50:44.943Z,23.33
2017-10-16T21:53:12.375Z,34.03
2017-10-16T21:55:40.807Z,21.87
2017-10-16T21:58:08.291Z,28.67
2017-10-16T22:00:35.890Z,20.73
2017-10-16T22:03:03.412Z,24.00
2017-10-16T22:05:30.869Z,25.92
2017-10-16T22:07:58.324Z,25.40
2017-10-16T22:10:25.779Z,24.70
2017-10-16T22:12:53.233Z,27.95
2017-10-16T22:15:20.839Z,40.40
2017-10-16T22:17:48.638Z,33.10
2017-10-16T22:20:16.107Z,28.77
2017-10-16T22:22:43.720Z,23.90
2017-10-16T22:25:11.648Z,29.53
2017-10-16T22:27:39.183Z,23.80
2017-10-16T22:30:06.698Z,27.13
2017-10-16T22:32:34.831Z,29.00
2017-10-16T22:35:02.279Z,22.33
2017-10-16T22:37:29.811Z,28.93
2017-10-16T22:39:57.330Z,26.30
2017-10-16T22:42:24.801Z,23.67
2017-10-16T22:44:52.362Z,19.67
2017-10-16T22:47:34.800Z,37.23
2017-10-16T22:50:02.262Z,22.70
2017-10-16T22:52:29.751Z,26.67
2017-10-16T22:54:57.317Z,30.13
2017-10-16T22:57:24.827Z,22.70
2017-10-16T22:59:52.360Z,28.00
2017-10-16T23:02:19.892Z,31.67
2017-10-16T23:04:47.552Z,30.98
2017-10-16T23:07:15.021Z,34.23
2017-10-16T23:09:42.637Z,27.50
2017-10-16T23:12:10.111Z,26.58
2017-10-16T23:14:37.540Z,26.53
2017-10-16T23:17:05.134Z,26.47
2017-10-16T23:19:32.607Z,22.70
2017-10-16T23:22:00.189Z,27.47
2017-10-16T23:24:27.814Z,27.77
2017-10-16T23:26:55.379Z,33.00
2017-10-16T23:29:22.807Z,37.87
2017-10-16T23:31:50.706Z,41.93
2017-10-16T23:34:18.194Z,30.73
2017-10-16T23:36:45.677Z,31.20
2017-10-16T23:39:13.228Z,28.40
2017-10-16T23:41:40.800Z,33.17
2017-10-16T23:44:08.244Z,27.57
2017-10-16T23:46:35.846Z,26.57
2017-10-16T23:49:03.440Z,33.83
2017-10-16T23:51:31.025Z,40.47
2017-10-16T23:53:58.489Z,48.43
2017-10-16T23:56:25.943Z,32.43
2017-10-16T23:58:53.380Z,32.63
